createdAt,value
2022-09-26T00:02:01.657Z,18.20
2022-09-26T00:07:06.532Z,19.20
2022-09-26T00:12:11.164Z,19.60
2022-09-26T00:17:15.619Z,18.40
2022-09-26T00:22:19.832Z,19.20
2022-09-26T00:32:28.627Z,17.90
2022-09-26T00:37:32.841Z,18.90
2022-09-26T00:42:36.279Z,19.20
2022-09-26T00:47:58.386Z,19.10
2022-09-26T00:53:07.255Z,18.20
2022-09-26T00:58:35.645Z,18.20
2022-09-26T01:03:45.376Z,17.40
2022-09-26T01:09:00.767Z,17.20
2022-09-26T01:14:09.539Z,17.20
2022-09-26T01:19:39.636Z,17.00
2022-09-26T01:24:53.583Z,15.90
2022-09-26T01:30:10.119Z,16.40
2022-09-26T01:35:57.655Z,15.80
2022-09-26T01:41:29.827Z,16.20
2022-09-26T01:47:12.534Z,15.40
2022-09-26T01:52:38.055Z,15.30
2022-09-26T01:57:55.087Z,16.10
2022-09-26T02:03:01.883Z,17.00
2022-09-26T02:08:11.954Z,17.50
2022-09-26T02:13:35.567Z,16.10
2022-09-26T02:18:45.664Z,16.50
2022-09-26T02:23:51.441Z,16.10
2022-09-26T02:28:54.393Z,16.20
2022-09-26T02:33:57.386Z,16.00
2022-09-26T02:39:02.079Z,16.50
2022-09-26T02:45:03.500Z,16.80
2022-09-26T02:50:09.353Z,16.50
2022-09-26T02:55:24.681Z,16.70
2022-09-26T03:00:36.654Z,16.00
2022-09-26T03:05:43.256Z,17.30
2022-09-26T03:10:48.491Z,17.30
2022-09-26T03:15:55.526Z,16.70
2022-09-26T03:21:01.650Z,18.10
2022-09-26T03:26:10.225Z,18.10
2022-09-26T03:31:14.173Z,17.80
2022-09-26T03:36:28.610Z,18.70
2022-09-26T03:41:31.885Z,17.60
2022-09-26T03:47:07.581Z,16.60
2022-09-26T03:52:14.976Z,16.80
2022-09-26T03:57:19.886Z,18.90
2022-09-26T04:02:34.186Z,44.90
2022-09-26T04:07:47.422Z,19.20
2022-09-26T04:12:50.330Z,18.20
2022-09-26T04:17:55.301Z,19.10
2022-09-26T04:22:59.399Z,18.50
2022-09-26T04:28:02.913Z,19.60
2022-09-26T04:33:06.186Z,18.90
2022-09-26T04:38:12.336Z,20.00
2022-09-26T04:43:15.376Z,20.40
2022-09-26T04:48:18.672Z,20.10
2022-09-26T04:53:39.574Z,21.00
2022-09-26T04:58:49.266Z,21.30
2022-09-26T05:03:53.567Z,21.70
2022-09-26T05:08:57.790Z,21.60
2022-09-26T05:14:15.042Z,20.90
2022-09-26T05:19:18.212Z,20.10
2022-09-26T05:24:58.670Z,21.50
2022-09-26T05:30:01.645Z,21.00
2022-09-26T05:35:06.497Z,20.30
2022-09-26T05:40:35.063Z,19.90
2022-09-26T05:45:38.685Z,20.90
2022-09-26T05:50:44.190Z,18.90
2022-09-26T05:55:51.179Z,20.30
2022-09-26T06:01:08.302Z,19.60
2022-09-26T06:06:21.999Z,20.60
2022-09-26T06:11:32.540Z,19.80
2022-09-26T06:21:40.281Z,20.30
2022-09-26T06:26:47.751Z,20.50
2022-09-26T06:31:51.958Z,21.00
2022-09-26T06:37:15.067Z,21.80
2022-09-26T06:42:18.026Z,20.90
2022-09-26T06:47:49.332Z,21.00
2022-09-26T06:53:09.297Z,21.00
2022-09-26T07:03:32.888Z,21.70
2022-09-26T07:09:02.219Z,22.10
2022-09-26T07:14:25.042Z,22.30
2022-09-26T07:19:34.404Z,21.80
2022-09-26T07:24:39.806Z,21.00
2022-09-26T07:29:42.833Z,20.80
2022-09-26T07:34:48.198Z,22.00
2022-09-26T07:39:54.729Z,22.10
2022-09-26T07:50:23.119Z,21.70
2022-09-26T07:56:05.302Z,20.10
2022-09-26T08:01:38.892Z,26.10
2022-09-26T08:07:12.648Z,19.40
2022-09-26T08:12:27.089Z,19.70
2022-09-26T08:17:41.628Z,20.00
2022-09-26T08:22:44.871Z,20.00
2022-09-26T08:27:50.636Z,18.00
2022-09-26T08:32:59.174Z,17.90
2022-09-26T08:38:04.084Z,19.30
2022-09-26T08:43:49.866Z,20.40
2022-09-26T08:49:24.201Z,20.60
2022-09-26T08:54:47.139Z,20.20
2022-09-26T08:59:52.974Z,18.90
2022-09-26T09:05:09.056Z,19.30
2022-09-26T09:10:20.114Z,20.40
2022-09-26T09:15:52.986Z,20.30
2022-09-26T09:21:23.313Z,20.00
2022-09-26T09:32:25.829Z,19.50
2022-09-26T09:37:51.256Z,20.50
2022-09-26T09:43:26.639Z,21.30
2022-09-26T09:48:30.234Z,21.00
2022-09-26T09:53:42.304Z,22.50
2022-09-26T09:59:08.632Z,23.10
2022-09-26T10:05:01.766Z,21.70
2022-09-26T10:10:10.549Z,22.10
2022-09-26T10:15:44.824Z,22.30
2022-09-26T10:21:17.936Z,23.40
2022-09-26T10:26:34.632Z,24.00
2022-09-26T10:31:42.629Z,24.00
2022-09-26T10:36:56.139Z,21.80
2022-09-26T10:42:01.141Z,22.10
2022-09-26T10:47:08.446Z,21.90
2022-09-26T10:52:34.741Z,23.10
2022-09-26T10:57:46.151Z,20.50
2022-09-26T11:02:52.583Z,19.80
2022-09-26T11:07:57.148Z,19.50
2022-09-26T11:13:22.313Z,16.10
2022-09-26T11:18:53.494Z,17.20
2022-09-26T11:24:11.921Z,17.40
2022-09-26T11:29:24.227Z,19.10
2022-09-26T11:34:45.316Z,20.40
2022-09-26T11:39:58.618Z,19.70
2022-09-26T11:45:10.099Z,16.90
2022-09-26T11:51:00.087Z,16.90
2022-09-26T11:56:50.471Z,15.40
2022-09-26T12:02:03.869Z,13.10
2022-09-26T12:07:43.800Z,12.40
2022-09-26T12:12:57.738Z,13.40
2022-09-26T12:18:15.341Z,12.70
2022-09-26T12:23:37.902Z,11.40
2022-09-26T12:29:05.240Z,12.00
2022-09-26T12:34:31.545Z,10.30
2022-09-26T12:45:06.572Z,10.60
2022-09-26T12:50:31.282Z,9.80
2022-09-26T12:56:07.011Z,10.30
2022-09-26T13:01:37.570Z,8.60
2022-09-26T13:07:08.059Z,9.30
2022-09-26T13:12:48.029Z,9.20
2022-09-26T13:17:57.956Z,9.10
2022-09-26T13:23:31.725Z,8.80
2022-09-26T13:29:13.304Z,9.20
2022-09-26T13:34:58.105Z,8.20
2022-09-26T13:40:39.548Z,7.40
2022-09-26T13:45:50.802Z,7.40
2022-09-26T13:51:06.648Z,7.30
2022-09-26T13:56:49.625Z,7.10
2022-09-26T14:02:18.095Z,5.60
2022-09-26T14:08:02.306Z,5.40
2022-09-26T14:13:21.911Z,4.40
2022-09-26T14:19:04.969Z,5.20
2022-09-26T14:24:25.926Z,5.10
2022-09-26T14:29:29.026Z,5.80
2022-09-26T14:34:36.066Z,4.90
2022-09-26T14:39:43.895Z,5.30
2022-09-26T14:45:06.110Z,4.30
2022-09-26T14:50:18.414Z,4.60
2022-09-26T14:55:21.718Z,4.20
2022-09-26T15:00:40.638Z,4.80
2022-09-26T15:05:45.300Z,4.10
2022-09-26T15:10:49.110Z,3.80
2022-09-26T15:16:03.549Z,4.40
2022-09-26T15:21:35.440Z,4.60
2022-09-26T15:26:38.459Z,4.90
2022-09-26T15:31:43.831Z,4.50
2022-09-26T15:36:56.601Z,4.30
2022-09-26T15:42:20.392Z,4.10
2022-09-26T15:47:40.580Z,4.20
2022-09-26T15:52:49.702Z,5.50
2022-09-26T15:57:57.905Z,5.00
2022-09-26T16:08:43.000Z,9.60
2022-09-26T16:13:50.724Z,6.90
2022-09-26T16:18:59.931Z,6.60
2022-09-26T16:24:34.740Z,6.10
2022-09-26T16:29:40.480Z,8.10
2022-09-26T16:40:00.223Z,10.30
2022-09-26T16:45:08.209Z,9.80
2022-09-26T16:50:30.582Z,10.30
2022-09-26T16:55:38.702Z,10.70
2022-09-26T17:01:01.199Z,9.80
2022-09-26T17:06:06.935Z,10.70
2022-09-26T17:11:18.191Z,12.20
2022-09-26T17:16:23.845Z,12.20
2022-09-26T17:21:29.399Z,11.30
2022-09-26T17:26:35.781Z,11.20
2022-09-26T17:31:41.010Z,10.20
2022-09-26T17:36:49.727Z,10.70
2022-09-26T17:41:59.507Z,10.10
2022-09-26T17:47:07.015Z,11.10
2022-09-26T17:52:38.380Z,11.30
2022-09-26T17:57:43.524Z,11.90
2022-09-26T18:02:54.166Z,10.80
2022-09-26T18:08:04.992Z,10.60
2022-09-26T18:13:16.195Z,11.20
2022-09-26T18:18:25.045Z,12.10
2022-09-26T18:23:43.311Z,11.70
2022-09-26T18:28:48.707Z,11.70
2022-09-26T18:33:58.885Z,11.70
2022-09-26T18:39:01.958Z,10.60
2022-09-26T18:44:05.742Z,11.90
2022-09-26T18:49:12.186Z,11.50
2022-09-26T18:54:17.439Z,14.40
2022-09-26T19:04:23.576Z,12.80
2022-09-26T19:09:32.233Z,13.30
2022-09-26T19:14:35.665Z,11.50
2022-09-26T19:19:38.704Z,12.70
2022-09-26T19:24:46.846Z,13.40
2022-09-26T19:29:58.875Z,13.20
2022-09-26T19:35:08.208Z,13.10
2022-09-26T19:40:51.032Z,13.40
2022-09-26T19:46:22.915Z,12.40
2022-09-26T19:51:59.591Z,12.30
2022-09-26T19:57:30.591Z,13.60
2022-09-26T20:02:54.254Z,13.30
2022-09-26T20:07:58.231Z,14.10
2022-09-26T20:13:10.165Z,15.10
2022-09-26T20:24:14.067Z,13.90
2022-09-26T20:29:27.354Z,14.80
2022-09-26T20:34:47.798Z,15.20
2022-09-26T20:40:26.076Z,15.40
2022-09-26T20:45:39.776Z,15.10
2022-09-26T20:50:58.939Z,14.70
2022-09-26T20:56:31.921Z,14.70
2022-09-26T21:01:42.379Z,16.00
2022-09-26T21:07:06.403Z,16.20
2022-09-26T21:12:21.833Z,15.90
2022-09-26T21:17:30.348Z,15.10
2022-09-26T21:22:37.748Z,16.00
2022-09-26T21:27:42.126Z,15.10
2022-09-26T21:32:53.383Z,16.00
2022-09-26T21:37:59.752Z,14.80
2022-09-26T21:43:11.881Z,15.30
2022-09-26T21:48:18.666Z,14.70
2022-09-26T21:53:29.225Z,14.40
2022-09-26T21:58:38.874Z,14.80
2022-09-26T22:03:42.779Z,14.90
2022-09-26T22:08:47.482Z,14.90
2022-09-26T22:13:51.873Z,13.60
2022-09-26T22:18:56.142Z,14.60
2022-09-26T22:24:00.711Z,15.50
2022-09-26T22:29:05.993Z,15.80
2022-09-26T22:34:12.521Z,16.00
2022-09-26T22:39:16.472Z,16.60
2022-09-26T22:44:21.090Z,16.50
2022-09-26T22:49:27.517Z,17.20
2022-09-26T22:54:30.987Z,16.90
2022-09-26T22:59:35.000Z,17.60
2022-09-26T23:04:49.096Z,18.40
2022-09-26T23:09:53.308Z,17.60
2022-09-26T23:14:58.661Z,17.10
2022-09-26T23:20:02.545Z,17.60
2022-09-26T23:25:08.536Z,16.80
2022-09-26T23:30:14.062Z,15.50
2022-09-26T23:35:17.582Z,15.50
2022-09-26T23:40:21.560Z,16.70
2022-09-26T23:45:27.439Z,17.30
2022-09-26T23:50:32.592Z,16.90
2022-09-26T23:55:36.935Z,16.30
